Argyle, Minnesota
Current Conditions -  °F | °C
As of 8:14 AM on Sunday 25 Jan 2015 (Local Time) from KHCO Reporting Station
Overcast Overcast  
Wind Chill: 10°   Ceiling: 9000
Heat Index: 10°   Visibility: 10mi
Dew Point:   Wind: 0mph
Humidity: 79%   Direction: NA
Pressure: 30.05"   Gusts: NA
Location:  48.33°N, 96.82°W
Report Text: KHCO 251414Z AUTO 00000KT 10SM OVC090 M12/M15 A3005 RMK AO2
Loading
Personal Weather Stations






























Interactive Weather Map New forecast layout! Learn more

10-Day Weather Forecast

Advertisements
Track Severe Weather on mobile